createdAt,value
2022-12-01T00:01:23.238Z,101000.31
2022-12-01T00:03:50.644Z,100992.50
2022-12-01T00:06:20.670Z,100996.81
2022-12-01T00:09:07.588Z,100993.34
2022-12-01T00:11:36.475Z,100983.78
2022-12-01T00:14:04.277Z,100989.00
2022-12-01T00:16:31.778Z,100987.22
2022-12-01T00:18:59.180Z,100999.44
2022-12-01T00:21:27.413Z,100923.84
2022-12-01T00:23:56.742Z,100983.84
2022-12-01T00:26:25.266Z,100976.88
2022-12-01T00:28:54.701Z,100936.06
2022-12-01T00:31:22.668Z,100970.75
2022-12-01T00:33:50.559Z,100980.31
2022-12-01T00:36:18.190Z,100954.28
2022-12-01T00:38:46.259Z,100967.44
2022-12-01T00:41:13.820Z,100947.38
2022-12-01T00:43:41.372Z,100964.75
2022-12-01T00:46:08.805Z,100951.69
2022-12-01T00:48:36.141Z,100894.34
2022-12-01T00:51:03.732Z,100976.94
2022-12-01T00:53:31.141Z,100923.13
2022-12-01T00:55:58.415Z,100961.25
2022-12-01T00:58:25.871Z,100943.00
2022-12-01T01:01:01.410Z,100974.28
2022-12-01T01:03:29.593Z,100978.59
2022-12-01T01:05:56.987Z,100967.28
2022-12-01T01:08:24.254Z,100959.41
2022-12-01T01:10:51.496Z,100973.34
2022-12-01T01:13:19.008Z,100957.69
2022-12-01T01:15:46.302Z,100965.56
2022-12-01T01:18:13.642Z,100936.91
2022-12-01T01:20:40.965Z,100948.09
2022-12-01T01:23:08.482Z,100944.69
2022-12-01T01:25:35.869Z,100956.84
2022-12-01T01:28:03.379Z,100936.91
2022-12-01T01:30:30.735Z,100949.97
2022-12-01T01:32:59.092Z,100926.50
2022-12-01T01:35:27.107Z,100947.38
2022-12-01T01:37:54.604Z,100948.25
2022-12-01T01:40:22.071Z,100949.97
2022-12-01T01:42:49.393Z,100957.78
2022-12-01T01:45:29.719Z,100969.94
2022-12-01T01:48:00.022Z,100956.88
2022-12-01T01:50:28.992Z,100955.19
2022-12-01T01:53:01.313Z,100922.19
2022-12-01T01:55:30.233Z,100953.44
2022-12-01T01:57:57.889Z,100926.50
2022-12-01T02:00:25.516Z,100962.09
2022-12-01T02:02:54.041Z,100948.25
2022-12-01T02:05:24.792Z,100969.06
2022-12-01T02:07:55.247Z,100936.94
2022-12-01T02:10:38.032Z,100953.44
2022-12-01T02:13:55.788Z,100968.16
2022-12-01T02:16:49.642Z,100965.50
2022-12-01T02:19:56.012Z,100988.09
2022-12-01T02:22:54.452Z,100975.06
2022-12-01T02:25:37.986Z,100980.31
2022-12-01T02:28:23.946Z,100975.97
2022-12-01T02:30:57.062Z,100981.16
2022-12-01T02:33:40.397Z,100979.41
2022-12-01T02:36:13.775Z,100976.00
2022-12-01T02:38:47.471Z,100956.91
2022-12-01T02:41:25.249Z,100975.16
2022-12-01T02:44:20.931Z,100949.03
2022-12-01T02:46:59.666Z,100957.75
2022-12-01T02:49:32.235Z,100916.94
2022-12-01T02:52:00.939Z,100924.78
2022-12-01T02:54:31.840Z,100976.00
2022-12-01T02:56:59.232Z,100964.84
2022-12-01T02:59:26.600Z,100952.56
2022-12-01T03:02:42.338Z,100961.31
2022-12-01T03:05:24.230Z,100942.19
2022-12-01T03:08:13.906Z,100946.56
2022-12-01T03:10:48.719Z,100910.06
2022-12-01T03:13:53.013Z,100965.59
2022-12-01T03:16:31.521Z,100953.44
2022-12-01T03:19:44.177Z,100961.31
2022-12-01T03:22:23.198Z,100951.78
2022-12-01T03:24:53.497Z,100942.25
2022-12-01T03:27:27.213Z,100970.03
2022-12-01T03:29:58.130Z,100949.19
2022-12-01T03:32:33.798Z,100952.63
2022-12-01T03:35:10.882Z,100945.66
2022-12-01T03:37:44.248Z,100929.13
2022-12-01T03:40:18.166Z,100926.59
2022-12-01T03:42:52.598Z,100937.00
2022-12-01T03:45:42.445Z,100936.97
2022-12-01T03:48:10.181Z,100954.28
2022-12-01T03:50:54.414Z,100954.28
2022-12-01T03:53:27.420Z,100956.03
2022-12-01T03:56:02.971Z,100938.69
2022-12-01T03:58:45.234Z,100951.66
2022-12-01T04:01:13.113Z,100946.50
2022-12-01T04:03:40.757Z,100933.34
2022-12-01T04:06:08.110Z,100936.06
2022-12-01T04:08:37.557Z,100949.22
2022-12-01T04:11:29.460Z,100935.19
2022-12-01T04:13:59.661Z,100960.31
2022-12-01T04:16:27.071Z,100934.22
2022-12-01T04:18:54.456Z,100948.94
2022-12-01T04:21:21.786Z,100945.53
2022-12-01T04:24:01.157Z,100942.91
2022-12-01T04:26:30.476Z,100946.28
2022-12-01T04:29:01.439Z,100967.09
2022-12-01T04:31:29.705Z,100959.34
2022-12-01T04:33:59.040Z,100931.47
2022-12-01T04:36:29.917Z,100963.59
2022-12-01T04:38:57.479Z,100951.41
2022-12-01T04:41:24.882Z,100961.81
2022-12-01T04:43:56.008Z,100956.63
2022-12-01T04:46:24.377Z,100933.19
2022-12-01T04:48:51.950Z,100967.00
2022-12-01T04:51:21.303Z,100947.88
2022-12-01T04:53:49.939Z,100942.69
2022-12-01T04:56:17.464Z,100965.31
2022-12-01T04:58:45.803Z,100948.81
2022-12-01T05:01:16.202Z,100960.91
2022-12-01T05:03:46.771Z,100958.22
2022-12-01T05:06:18.202Z,100965.13
2022-12-01T05:08:46.173Z,100938.19
2022-12-01T05:11:14.595Z,100960.81
2022-12-01T05:13:44.770Z,100972.97
2022-12-01T05:16:19.548Z,100939.00
2022-12-01T05:19:24.815Z,100966.00
2022-12-01T05:21:52.502Z,100954.56
2022-12-01T05:24:21.199Z,100958.81
2022-12-01T05:26:49.211Z,100954.50
2022-12-01T05:29:16.653Z,100948.28
2022-12-01T05:31:45.904Z,100955.16
2022-12-01T05:34:13.457Z,100918.63
2022-12-01T05:36:40.920Z,100926.31
2022-12-01T05:39:08.324Z,100955.88
2022-12-01T05:41:35.676Z,100941.94
2022-12-01T05:44:02.997Z,100943.66
2022-12-01T05:46:30.345Z,100921.00
2022-12-01T05:48:57.640Z,100961.91
2022-12-01T05:51:24.971Z,100957.56
2022-12-01T05:53:52.276Z,100951.56
2022-12-01T05:56:19.729Z,100959.38
2022-12-01T05:58:50.125Z,100947.16
2022-12-01T06:01:17.661Z,100980.22
2022-12-01T06:03:45.047Z,100912.41
2022-12-01T06:06:12.399Z,100956.72
2022-12-01T06:08:39.807Z,100948.91
2022-12-01T06:11:07.118Z,100966.34
2022-12-01T06:13:34.484Z,100973.34
2022-12-01T06:16:04.662Z,100976.03
2022-12-01T06:18:34.852Z,100974.63
2022-12-01T06:21:03.053Z,100970.03
2022-12-01T06:23:30.866Z,100944.81
2022-12-01T06:25:58.746Z,100979.59
2022-12-01T06:28:26.148Z,100969.00
2022-12-01T06:30:56.636Z,100963.00
2022-12-01T06:33:28.566Z,100944.59
2022-12-01T06:36:04.705Z,100997.66
2022-12-01T06:38:34.182Z,100980.28
2022-12-01T06:41:01.833Z,101002.09
2022-12-01T06:43:29.932Z,100942.25
2022-12-01T06:46:01.698Z,100913.53
2022-12-01T06:48:31.566Z,101001.34
2022-12-01T06:51:00.194Z,100966.59
2022-12-01T06:53:29.056Z,100981.34
2022-12-01T06:56:01.105Z,101003.94
2022-12-01T06:58:28.766Z,100983.81
2022-12-01T07:00:57.426Z,100996.78
2022-12-01T07:03:24.934Z,101007.28
2022-12-01T07:06:00.546Z,101016.03
2022-12-01T07:08:32.394Z,100992.59
2022-12-01T07:11:07.604Z,101003.84
2022-12-01T07:13:35.869Z,100993.50
2022-12-01T07:16:03.731Z,101002.25
2022-12-01T07:18:32.182Z,101012.66
2022-12-01T07:21:11.835Z,100984.84
2022-12-01T07:23:39.983Z,100926.72
2022-12-01T07:26:13.104Z,100963.19
2022-12-01T07:28:40.938Z,101012.78
2022-12-01T07:31:11.084Z,100991.13
2022-12-01T07:33:40.149Z,100979.91
2022-12-01T07:36:08.476Z,100988.56
2022-12-01T07:38:37.617Z,100997.28
2022-12-01T07:41:11.826Z,101009.47
2022-12-01T07:43:39.668Z,101004.28
2022-12-01T07:46:10.554Z,101000.03
2022-12-01T07:48:39.220Z,101001.75
2022-12-01T07:51:12.386Z,101000.88
2022-12-01T07:53:39.730Z,100947.91
2022-12-01T07:56:08.965Z,100961.91
2022-12-01T07:58:37.192Z,100990.53
2022-12-01T08:01:10.129Z,100977.53
2022-12-01T08:03:37.980Z,100990.50
2022-12-01T08:06:06.313Z,100928.88
2022-12-01T08:08:35.599Z,100964.56
2022-12-01T08:11:10.176Z,100990.72
2022-12-01T08:13:38.997Z,100990.63
2022-12-01T08:16:07.990Z,100985.47
2022-12-01T08:18:36.523Z,100990.69
2022-12-01T08:21:04.786Z,100977.69
2022-12-01T08:23:32.415Z,100963.81
2022-12-01T08:26:13.037Z,100983.88
2022-12-01T08:28:41.244Z,100983.03
2022-12-01T08:31:19.776Z,100990.94
2022-12-01T08:33:48.826Z,100955.44
2022-12-01T08:36:16.659Z,100989.25
2022-12-01T08:38:45.530Z,100967.72
2022-12-01T08:41:13.580Z,100934.72
2022-12-01T08:44:00.333Z,100959.81
2022-12-01T08:46:34.168Z,100976.34
2022-12-01T08:49:02.459Z,100989.38
2022-12-01T08:51:30.254Z,100964.16
2022-12-01T08:53:59.771Z,100960.72
2022-12-01T08:56:33.918Z,100970.38
2022-12-01T08:59:01.483Z,100959.09
2022-12-01T09:01:29.407Z,100965.16
2022-12-01T09:04:08.765Z,100956.47
2022-12-01T09:06:41.929Z,100944.31
2022-12-01T09:09:11.690Z,100959.00
2022-12-01T09:11:45.977Z,100920.81
2022-12-01T09:14:15.530Z,100895.75
2022-12-01T09:16:44.499Z,100911.38
2022-12-01T09:19:13.427Z,100937.22
2022-12-01T09:21:42.709Z,100939.66
2022-12-01T09:24:11.055Z,100920.47
2022-12-01T09:26:38.442Z,100916.00
2022-12-01T09:29:09.015Z,100896.03
2022-12-01T09:31:37.994Z,100913.44
2022-12-01T09:34:09.150Z,100940.88
2022-12-01T09:36:37.424Z,100940.69
2022-12-01T09:39:09.122Z,100925.94
2022-12-01T09:41:57.758Z,100931.41
2022-12-01T09:44:34.896Z,100940.06
2022-12-01T09:47:28.948Z,100929.56
2022-12-01T09:50:24.043Z,100915.59
2022-12-01T09:53:00.404Z,100924.06
2022-12-01T09:55:30.403Z,100893.81
2022-12-01T09:57:59.501Z,100916.28
2022-12-01T10:00:32.646Z,100887.59
2022-12-01T10:03:09.808Z,100904.25
2022-12-01T10:06:24.989Z,100885.19
2022-12-01T10:08:43.360Z,100875.84
2022-12-01T10:11:27.523Z,100893.22
2022-12-01T10:13:54.931Z,100895.81
2022-12-01T10:16:38.725Z,100911.66
2022-12-01T10:19:22.096Z,100899.31
2022-12-01T10:22:12.696Z,100901.09
2022-12-01T10:25:06.302Z,100910.59
2022-12-01T10:27:40.941Z,100874.13
2022-12-01T10:30:15.790Z,100890.63
2022-12-01T10:32:55.177Z,100902.81
2022-12-01T10:35:27.290Z,100867.22
2022-12-01T10:38:06.877Z,100882.00
2022-12-01T10:40:35.358Z,100876.50
2022-12-01T10:43:03.088Z,100821.84
2022-12-01T10:45:44.042Z,100882.31
2022-12-01T10:48:15.711Z,100884.75
2022-12-01T10:50:55.616Z,100874.25
2022-12-01T10:53:30.670Z,100875.03
2022-12-01T10:55:59.830Z,100878.34
2022-12-01T10:58:27.451Z,100864.56
2022-12-01T11:01:00.108Z,100857.66
2022-12-01T11:03:31.750Z,100837.66
2022-12-01T11:06:02.088Z,100867.75
2022-12-01T11:08:29.368Z,100866.03
2022-12-01T11:10:56.891Z,100871.22
2022-12-01T11:13:30.960Z,100860.81
2022-12-01T11:16:01.595Z,100866.03
2022-12-01T11:18:39.665Z,100844.25
2022-12-01T11:21:15.996Z,100853.75
2022-12-01T11:23:49.006Z,100852.09
2022-12-01T11:26:32.245Z,100842.53
2022-12-01T11:29:07.962Z,100863.34
2022-12-01T11:31:48.858Z,100849.41
2022-12-01T11:34:27.490Z,100857.91
2022-12-01T11:37:00.568Z,100857.06
2022-12-01T11:39:32.492Z,100864.03
2022-12-01T11:42:04.332Z,100829.41
2022-12-01T11:44:50.929Z,100866.66
2022-12-01T11:47:25.501Z,100862.16
2022-12-01T11:49:58.642Z,100866.50
2022-12-01T11:52:31.941Z,100869.19
2022-12-01T11:55:20.730Z,100849.13
2022-12-01T11:57:50.727Z,100860.44
2022-12-01T12:00:24.539Z,100861.38
2022-12-01T12:02:54.901Z,100850.91
2022-12-01T12:06:01.377Z,100853.63
2022-12-01T12:09:02.303Z,100852.59
2022-12-01T12:12:16.651Z,100843.72
2022-12-01T12:14:57.171Z,100834.63
2022-12-01T12:17:50.227Z,100849.84
2022-12-01T12:20:42.636Z,100857.59
2022-12-01T12:23:31.986Z,100856.75
2022-12-01T12:26:27.634Z,100858.84
2022-12-01T12:29:15.121Z,100851.25
2022-12-01T12:32:08.812Z,100847.81
2022-12-01T12:34:54.497Z,100851.31
2022-12-01T12:37:43.152Z,100844.34
2022-12-01T12:40:22.521Z,100838.25
2022-12-01T12:43:14.843Z,100853.53
2022-12-01T12:46:19.550Z,100859.78
2022-12-01T12:49:23.408Z,100847.97
2022-12-01T12:52:17.520Z,100835.88
2022-12-01T12:55:11.385Z,100847.50
2022-12-01T12:57:45.791Z,100837.22
2022-12-01T13:00:13.147Z,100852.78
2022-12-01T13:02:42.281Z,100828.78
2022-12-01T13:05:21.076Z,100846.13
2022-12-01T13:08:03.997Z,100863.50
2022-12-01T13:10:42.823Z,100861.19
2022-12-01T13:13:19.048Z,100870.53
2022-12-01T13:15:50.584Z,100849.13
2022-12-01T13:18:37.590Z,100870.81
2022-12-01T13:21:06.049Z,100860.47
2022-12-01T13:23:36.501Z,100846.56
2022-12-01T13:26:08.190Z,100866.53
2022-12-01T13:28:55.369Z,100863.84
2022-12-01T13:31:23.440Z,100841.34
2022-12-01T13:33:58.249Z,100847.34
2022-12-01T13:39:20.744Z,100858.63
2022-12-01T13:42:00.135Z,100847.47
2022-12-01T13:44:30.693Z,100855.22
2022-12-01T13:47:09.774Z,100862.00
2022-12-01T13:49:58.451Z,100864.69
2022-12-01T13:52:32.265Z,100847.50
2022-12-01T13:55:08.398Z,100868.31
2022-12-01T13:57:44.790Z,100864.94
2022-12-01T14:00:27.040Z,100867.63
2022-12-01T14:03:13.091Z,100869.47
2022-12-01T14:05:40.633Z,100867.81
2022-12-01T14:08:23.468Z,100853.19
2022-12-01T14:10:58.640Z,100869.59
2022-12-01T14:13:28.214Z,100838.59
2022-12-01T14:16:03.918Z,100847.34
2022-12-01T14:18:33.153Z,100862.94
2022-12-01T14:21:04.564Z,100853.47
2022-12-01T14:23:36.983Z,100832.75
2022-12-01T14:26:16.029Z,100830.28
2022-12-01T14:28:55.749Z,100864.97
2022-12-01T14:31:25.046Z,100853.81
2022-12-01T14:33:57.068Z,100821.78
2022-12-01T14:36:24.352Z,100874.66
2022-12-01T14:38:57.499Z,100873.81
2022-12-01T14:41:26.389Z,100877.34
2022-12-01T14:44:05.223Z,100882.56
2022-12-01T14:46:41.256Z,100884.34
2022-12-01T14:49:20.227Z,100853.16
2022-12-01T14:51:51.192Z,100869.66
2022-12-01T14:54:26.323Z,100880.94
2022-12-01T14:57:00.201Z,100887.00
2022-12-01T14:59:31.374Z,100896.56
2022-12-01T15:02:08.977Z,100877.53
2022-12-01T15:05:13.930Z,100896.63
2022-12-01T15:07:46.279Z,100885.38
2022-12-01T15:10:16.456Z,100900.09
2022-12-01T15:12:43.859Z,100888.84
2022-12-01T15:15:24.350Z,100899.25
2022-12-01T15:17:55.448Z,100890.56
2022-12-01T15:20:33.290Z,100901.84
2022-12-01T15:23:08.787Z,100881.03
2022-12-01T15:25:37.135Z,100904.47
2022-12-01T15:28:12.579Z,100909.66
2022-12-01T15:30:43.102Z,100907.06
2022-12-01T15:33:27.743Z,100897.50
2022-12-01T15:35:58.795Z,100897.53
2022-12-01T15:38:31.218Z,100889.69
2022-12-01T15:41:27.773Z,100906.19
2022-12-01T15:44:00.723Z,100882.75
2022-12-01T15:46:30.660Z,100871.50
2022-12-01T15:49:16.607Z,100892.31
2022-12-01T15:51:50.755Z,100894.03
2022-12-01T15:54:23.223Z,100901.84
2022-12-01T15:56:56.107Z,100900.97
2022-12-01T15:59:44.541Z,100892.31
2022-12-01T16:02:33.549Z,100904.44
2022-12-01T16:05:13.047Z,100906.16
2022-12-01T16:10:32.978Z,100919.16
2022-12-01T16:13:40.220Z,100918.28
2022-12-01T16:16:23.006Z,100900.91
2022-12-01T16:18:58.298Z,100922.59
2022-12-01T16:21:26.505Z,100864.44
2022-12-01T16:24:05.052Z,100919.09
2022-12-01T16:26:33.961Z,100910.41
2022-12-01T16:29:02.585Z,100867.94
2022-12-01T16:31:29.984Z,100913.03
2022-12-01T16:34:13.784Z,100919.94
2022-12-01T16:36:46.485Z,100923.38
2022-12-01T16:39:14.748Z,100920.78
2022-12-01T16:41:46.981Z,100918.13
2022-12-01T16:44:28.688Z,100922.44
2022-12-01T16:46:56.786Z,100923.28
2022-12-01T16:49:24.179Z,100903.31
2022-12-01T16:51:56.374Z,100900.66
2022-12-01T16:54:24.397Z,100905.13
2022-12-01T16:56:51.703Z,100885.94
2022-12-01T16:59:20.158Z,100905.09
2022-12-01T17:01:47.583Z,100900.69
2022-12-01T17:04:15.121Z,100890.16
2022-12-01T17:06:42.455Z,100897.03
2022-12-01T17:09:09.860Z,100890.81
2022-12-01T17:11:38.230Z,100892.34
2022-12-01T17:14:05.511Z,100916.53
2022-12-01T17:16:32.838Z,100927.75
2022-12-01T17:19:01.181Z,100946.78
2022-12-01T17:21:29.204Z,100949.25
2022-12-01T17:23:56.685Z,100913.47
2022-12-01T17:26:23.997Z,100916.72
2022-12-01T17:28:54.826Z,100952.38
2022-12-01T17:31:22.459Z,100914.59
2022-12-01T17:33:50.561Z,100964.56
2022-12-01T17:36:18.437Z,100942.69
2022-12-01T17:38:46.966Z,100958.19
2022-12-01T17:41:17.476Z,100950.25
2022-12-01T17:43:44.854Z,100962.50
2022-12-01T17:46:12.811Z,100940.78
2022-12-01T17:48:43.358Z,100949.72
2022-12-01T17:51:12.607Z,100956.34
2022-12-01T17:53:40.381Z,100939.69
2022-12-01T17:56:12.507Z,100956.03
2022-12-01T17:58:40.178Z,100963.75
2022-12-01T18:01:14.840Z,100955.00
2022-12-01T18:03:42.566Z,100951.28
2022-12-01T18:06:11.875Z,100933.94
2022-12-01T18:08:39.837Z,100905.09
2022-12-01T18:11:10.750Z,100965.00
2022-12-01T18:13:39.908Z,100945.06
2022-12-01T18:16:09.332Z,100964.81
2022-12-01T18:18:37.742Z,100938.22
2022-12-01T18:21:11.502Z,100972.72
2022-12-01T18:23:38.901Z,100980.41
2022-12-01T18:26:15.128Z,100982.84
2022-12-01T18:28:44.088Z,100974.88
2022-12-01T18:31:14.264Z,100984.25
2022-12-01T18:33:43.573Z,100985.91
2022-12-01T18:36:23.439Z,100978.03
2022-12-01T18:38:52.165Z,100981.44
2022-12-01T18:41:19.997Z,100963.84
2022-12-01T18:43:47.583Z,100962.13
2022-12-01T18:46:16.589Z,100984.72
2022-12-01T18:48:45.874Z,100977.75
2022-12-01T18:51:13.333Z,100958.94
2022-12-01T18:53:41.464Z,100985.31
2022-12-01T18:56:11.862Z,100980.84
2022-12-01T18:58:40.616Z,100963.09
2022-12-01T19:01:43.906Z,100953.53
2022-12-01T19:04:12.336Z,100974.44
2022-12-01T19:06:41.517Z,100991.59
2022-12-01T19:09:10.858Z,100967.94
2022-12-01T19:11:40.526Z,100969.59
2022-12-01T19:14:12.062Z,100990.53
2022-12-01T19:16:39.623Z,100943.63
2022-12-01T19:19:07.168Z,100969.72
2022-12-01T19:21:34.551Z,100958.59
2022-12-01T19:24:01.867Z,100956.13
2022-12-01T19:26:29.202Z,100948.34
2022-12-01T19:28:56.500Z,100954.50
2022-12-01T19:31:24.902Z,100970.09
2022-12-01T19:33:54.104Z,100980.44
2022-12-01T19:36:24.031Z,100959.59
2022-12-01T19:38:52.752Z,100990.00
2022-12-01T19:41:20.955Z,100969.00
2022-12-01T19:43:48.638Z,100982.06
2022-12-01T19:46:19.425Z,100959.47
2022-12-01T19:48:47.721Z,100990.91
2022-12-01T19:51:26.505Z,100987.53
2022-12-01T19:53:54.742Z,100951.16
2022-12-01T19:56:22.920Z,101002.63
2022-12-01T19:58:50.778Z,100996.56
2022-12-01T20:01:19.776Z,100992.28
2022-12-01T20:03:52.053Z,100990.75
2022-12-01T20:06:22.344Z,100986.59
2022-12-01T20:08:50.224Z,101005.72
2022-12-01T20:11:18.009Z,101004.84
2022-12-01T20:13:47.924Z,100994.50
2022-12-01T20:16:15.121Z,101000.69
2022-12-01T20:18:42.725Z,100984.25
2022-12-01T20:21:16.696Z,101008.63
2022-12-01T20:23:47.445Z,101005.28
2022-12-01T20:26:16.180Z,101001.97
2022-12-01T20:28:45.243Z,100997.63
2022-12-01T20:31:18.979Z,100985.50
2022-12-01T20:33:46.377Z,100982.22
2022-12-01T20:36:15.125Z,100995.16
2022-12-01T20:38:42.785Z,100991.88
2022-12-01T20:41:11.605Z,100997.00
2022-12-01T20:43:39.148Z,100990.06
2022-12-01T20:46:07.213Z,101002.34
2022-12-01T20:48:35.370Z,101006.72
2022-12-01T20:51:05.077Z,101002.41
2022-12-01T20:53:32.947Z,100976.34
2022-12-01T20:56:04.835Z,101002.44
2022-12-01T20:58:37.235Z,100979.97
2022-12-01T21:01:23.538Z,100994.78
2022-12-01T21:03:51.473Z,100989.63
2022-12-01T21:06:19.459Z,100995.78
2022-12-01T21:08:48.744Z,100985.41
2022-12-01T21:11:19.074Z,101012.50
2022-12-01T21:13:46.920Z,100999.44
2022-12-01T21:16:14.584Z,101006.44
2022-12-01T21:19:06.480Z,100983.88
2022-12-01T21:21:42.815Z,100998.00
2022-12-01T21:24:13.685Z,101014.44
2022-12-01T21:26:48.070Z,101010.97
2022-12-01T21:29:26.847Z,100990.94
2022-12-01T21:32:00.210Z,100990.06
2022-12-01T21:34:28.852Z,101009.94
2022-12-01T21:37:00.059Z,101014.28
2022-12-01T21:39:30.161Z,101008.19
2022-12-01T21:42:06.905Z,101015.16
2022-12-01T21:44:37.397Z,100993.47
2022-12-01T21:47:23.871Z,101024.75
2022-12-01T21:49:54.147Z,101009.13
2022-12-01T21:52:39.664Z,101003.06
2022-12-01T21:55:16.267Z,101021.38
2022-12-01T21:57:46.201Z,101020.53
2022-12-01T22:00:31.123Z,101023.97
2022-12-01T22:03:07.785Z,100994.47
2022-12-01T22:05:40.415Z,101023.13
2022-12-01T22:08:07.906Z,101022.28
2022-12-01T22:10:56.921Z,101025.78
2022-12-01T22:13:52.125Z,101020.69
2022-12-01T22:16:29.898Z,101008.47
2022-12-01T22:18:59.515Z,101002.44
2022-12-01T22:21:41.321Z,101006.78
2022-12-01T22:24:08.654Z,101022.47
2022-12-01T22:26:44.510Z,101021.59
2022-12-01T22:29:28.912Z,101024.25
2022-12-01T22:32:14.534Z,101025.97
2022-12-01T22:34:49.598Z,101018.16
2022-12-01T22:37:43.598Z,101019.91
2022-12-01T22:40:32.947Z,101024.28
2022-12-01T22:43:15.503Z,101017.41
2022-12-01T22:45:53.088Z,101003.53
2022-12-01T22:48:32.558Z,101011.34
2022-12-01T22:51:14.605Z,101003.53
2022-12-01T22:53:43.934Z,101017.47
2022-12-01T22:56:41.830Z,101017.47
2022-12-01T22:59:23.537Z,101016.63
2022-12-01T23:01:56.104Z,101014.94
2022-12-01T23:04:26.664Z,101006.31
2022-12-01T23:07:26.883Z,101001.06
2022-12-01T23:09:58.277Z,100982.84
2022-12-01T23:12:33.678Z,100990.66
2022-12-01T23:15:21.318Z,101011.53
2022-12-01T23:17:49.477Z,100995.06
2022-12-01T23:20:34.454Z,101002.94
2022-12-01T23:23:05.377Z,101022.00
2022-12-01T23:25:35.080Z,101009.88
2022-12-01T23:28:06.019Z,101001.19
2022-12-01T23:30:36.008Z,101002.06
2022-12-01T23:33:11.016Z,100998.59
2022-12-01T23:35:46.731Z,101005.47
2022-12-01T23:38:20.366Z,101002.03
2022-12-01T23:40:49.220Z,100987.28
2022-12-01T23:43:24.301Z,101001.31
2022-12-01T23:46:04.684Z,101003.06
2022-12-01T23:48:37.384Z,100994.41
2022-12-01T23:51:11.459Z,100957.03
2022-12-01T23:53:40.323Z,100994.28
2022-12-01T23:56:18.821Z,100999.47
2022-12-01T23:58:46.506Z,100993.41
